Time;durP1;ratioP1;P1;durP2;ratioP2;P2;SDS_P1;SDS_P2;PMS_P1;PMS_P2;Temp;Humidity;BMP_temperature;BMP_pressure;BME280_temperature;BME280_humidity;BME280_pressure;Samples;Min_cycle;Max_cycle;Signal;HPM_P1;HPM_P2
2021/04/11 00:02:03;;;;;;;7.53;4.65;;;;;;;3.68;59.63;95783.00;5031200;28;20034;-68
2021/04/11 00:04:30;;;;;;;7.63;4.35;;;;;;;3.68;59.57;95764.97;5027171;28;20107;-68
2021/04/11 00:06:56;;;;;;;8.00;4.30;;;;;;;3.67;59.33;95764.16;5034103;28;20788;-68
2021/04/11 00:09:23;;;;;;;7.68;4.43;;;;;;;3.53;60.22;95757.94;5029794;28;20427;-68
2021/04/11 00:11:50;;;;;;;8.07;4.70;;;;;;;3.50;60.94;95765.97;5032212;28;20526;-67
2021/04/11 00:14:16;;;;;;;9.30;4.78;;;;;;;3.48;61.26;95769.69;5043463;28;20056;-68
2021/04/11 00:16:42;;;;;;;8.68;5.28;;;;;;;3.46;60.33;95764.69;5036412;28;20430;-68
2021/04/11 00:19:09;;;;;;;7.05;5.22;;;;;;;3.38;60.91;95769.84;5043603;28;20045;-68
2021/04/11 00:21:35;;;;;;;8.18;5.28;;;;;;;3.27;61.21;95765.84;5038011;28;20052;-68
2021/04/11 00:24:01;;;;;;;7.95;4.85;;;;;;;3.32;60.63;95760.22;5033585;28;20595;-68
2021/04/11 00:26:28;;;;;;;7.53;4.80;;;;;;;3.41;60.20;95764.38;5032364;28;20068;-68
2021/04/11 00:28:54;;;;;;;9.27;4.68;;;;;;;3.43;60.53;95762.44;5031275;28;20051;-68
2021/04/11 00:31:23;;;;;;;6.07;4.57;;;;;;;3.23;60.70;95757.63;5039848;28;20034;-68
2021/04/11 00:33:53;;;;;;;7.70;4.32;;;;;;;3.21;60.71;95769.06;5036047;28;20045;-67
2021/04/11 00:36:20;;;;;;;6.07;3.95;;;;;;;3.23;60.54;95773.06;5032843;28;20045;-68
2021/04/11 00:38:46;;;;;;;13.60;5.07;;;;;;;3.18;60.94;95780.47;5040269;28;20057;-67
2021/04/11 00:41:23;;;;;;;10.05;5.80;;;;;;;3.14;61.18;95768.91;5036602;28;20045;-68
2021/04/11 00:43:51;;;;;;;6.70;4.45;;;;;;;3.02;61.59;95770.19;5042225;28;20047;-68
2021/04/11 00:46:30;;;;;;;7.15;4.53;;;;;;;3.05;61.71;95765.50;5041625;28;20045;-68
2021/04/11 00:48:56;;;;;;;10.07;4.15;;;;;;;3.01;62.29;95766.81;5037221;28;20045;-68
2021/04/11 00:51:27;;;;;;;5.97;4.72;;;;;;;2.79;62.77;95755.38;5040172;28;20041;-68
2021/04/11 00:54:01;;;;;;;6.38;4.40;;;;;;;2.74;64.78;95767.91;5041471;28;20468;-68
2021/04/11 00:56:30;;;;;;;8.18;4.30;;;;;;;2.25;66.56;95749.78;5030187;28;20037;-68
2021/04/11 00:58:57;;;;;;;5.13;4.15;;;;;;;2.17;66.44;95770.34;5040183;28;20036;-68
2021/04/11 01:01:24;;;;;;;10.93;4.78;;;;;;;2.10;67.49;95770.94;5045482;28;20033;-68
2021/04/11 01:03:52;;;;;;;8.90;4.78;;;;;;;2.09;67.48;95774.50;5041732;28;20072;-68
2021/04/11 01:06:37;;;;;;;9.23;5.10;;;;;;;2.28;66.67;95773.41;5033100;28;20038;-68
2021/04/11 01:09:14;;;;;;;6.30;4.95;;;;;;;2.25;66.85;95772.91;5035742;28;20045;-68
2021/04/11 01:11:41;;;;;;;6.50;4.63;;;;;;;2.16;67.58;95774.69;5027309;28;20044;-68
2021/04/11 01:14:09;;;;;;;7.68;5.38;;;;;;;2.02;67.33;95757.28;5035351;28;20053;-68
2021/04/11 01:16:37;;;;;;;7.72;5.05;;;;;;;2.17;67.27;95781.41;5032639;28;20124;-68
2021/04/11 01:19:12;;;;;;;8.05;4.68;;;;;;;2.23;67.43;95769.72;5027321;28;20041;-68
2021/04/11 01:22:27;;;;;;;8.38;4.68;;;;;;;2.19;67.08;95774.34;5032657;28;20033;-68
2021/04/11 01:24:58;;;;;;;6.35;4.60;;;;;;;2.25;66.89;95773.75;5023297;28;20045;-68
2021/04/11 01:27:33;;;;;;;9.15;5.20;;;;;;;2.19;66.97;95768.41;5031255;28;20518;-68
2021/04/11 01:30:12;;;;;;;6.88;4.70;;;;;;;2.00;68.01;95774.59;5025200;28;20045;-68
2021/04/11 01:32:43;;;;;;;6.05;4.45;;;;;;;1.88;67.77;95761.22;5032694;28;20065;-68
2021/04/11 01:35:13;;;;;;;7.68;4.65;;;;;;;1.80;68.52;95777.41;5026019;28;20103;-68
2021/04/11 01:37:40;;;;;;;9.90;4.68;;;;;;;1.77;69.19;95779.47;5036202;28;20511;-68
2021/04/11 01:40:11;;;;;;;8.73;5.07;;;;;;;1.75;69.41;95786.50;5030099;28;20435;-67
2021/04/11 01:42:40;;;;;;;6.97;4.50;;;;;;;1.75;68.96;95781.38;5036632;28;20044;-67
2021/04/11 01:45:08;;;;;;;8.40;5.30;;;;;;;1.80;68.98;95774.03;5028523;28;20040;-67
2021/04/11 01:47:35;;;;;;;7.30;4.40;;;;;;;1.74;69.10;95769.50;5031450;28;20441;-67
2021/04/11 01:50:04;;;;;;;7.45;4.30;;;;;;;1.79;69.16;95792.97;5032243;28;20518;-67
2021/04/11 01:52:33;;;;;;;6.60;4.57;;;;;;;1.82;68.51;95790.91;5039231;28;20144;-68
2021/04/11 01:55:00;;;;;;;9.48;4.93;;;;;;;1.86;68.35;95787.06;5029774;28;20044;-67
2021/04/11 01:57:33;;;;;;;8.50;5.15;;;;;;;1.87;68.15;95786.13;5029005;28;20132;-67
2021/04/11 02:00:07;;;;;;;5.93;4.60;;;;;;;1.84;68.04;95780.47;5031326;28;20216;-68
2021/04/11 02:02:39;;;;;;;7.88;5.38;;;;;;;1.80;68.37;95790.25;5039686;28;20586;-68
2021/04/11 02:05:14;;;;;;;7.38;4.25;;;;;;;1.71;68.82;95791.97;5027064;28;20535;-68
2021/04/11 02:07:44;;;;;;;6.93;5.03;;;;;;;1.69;69.03;95788.75;5026613;28;20041;-67
2021/04/11 02:10:16;;;;;;;9.38;5.13;;;;;;;1.63;68.52;95791.13;5034094;28;20045;-68
2021/04/11 02:13:02;;;;;;;10.57;4.93;;;;;;;1.61;68.86;95786.13;5027971;28;20045;-68
2021/04/11 02:15:36;;;;;;;8.48;5.22;;;;;;;1.68;68.31;95792.28;5030552;28;20079;-67
2021/04/11 02:18:03;;;;;;;7.68;4.93;;;;;;;1.68;67.74;95783.75;5044439;28;20040;-68
2021/04/11 02:20:31;;;;;;;11.23;5.75;;;;;;;1.72;67.68;95793.56;5031273;28;20533;-68
2021/04/11 02:22:58;;;;;;;9.93;5.38;;;;;;;1.71;67.96;95781.69;5011958;28;20049;-68
2021/04/11 02:25:32;;;;;;;8.60;5.38;;;;;;;1.73;68.27;95784.13;5031061;28;20041;-68
2021/04/11 02:28:11;;;;;;;10.40;5.00;;;;;;;1.74;67.70;95774.66;5030616;28;20041;-67
2021/04/11 02:30:53;;;;;;;8.70;4.55;;;;;;;1.64;67.46;95765.28;5036465;28;20041;-67
2021/04/11 02:33:21;;;;;;;7.95;5.07;;;;;;;1.69;67.46;95773.34;5042667;28;20036;-67
2021/04/11 02:35:48;;;;;;;8.10;4.80;;;;;;;1.64;67.87;95775.56;5028965;28;20080;-67
2021/04/11 02:38:16;;;;;;;7.45;4.80;;;;;;;1.63;67.38;95773.94;5034633;28;20045;-67
2021/04/11 02:40:46;;;;;;;11.10;5.30;;;;;;;1.70;67.67;95777.50;5044436;28;20063;-68
2021/04/11 02:43:19;;;;;;;8.35;5.63;;;;;;;1.59;68.14;95772.63;5035687;28;20050;-67
2021/04/11 02:45:47;;;;;;;8.27;4.78;;;;;;;1.53;68.39;95775.78;5035629;28;20037;-67
2021/04/11 02:48:15;;;;;;;9.02;5.28;;;;;;;1.64;67.58;95770.44;5037472;28;20052;-68
2021/04/11 02:50:56;;;;;;;8.20;5.05;;;;;;;1.75;66.58;95768.53;5039550;28;20127;-68
2021/04/11 02:53:27;;;;;;;7.35;4.30;;;;;;;1.83;65.77;95768.59;5039526;28;20048;-68
2021/04/11 02:56:01;;;;;;;8.20;5.07;;;;;;;1.94;64.98;95770.88;5034503;28;20045;-67
2021/04/11 02:58:29;;;;;;;7.93;4.93;;;;;;;1.97;65.68;95760.31;5030381;28;20045;-68
2021/04/11 03:01:05;;;;;;;9.63;4.72;;;;;;;1.96;66.20;95768.97;5028112;28;20513;-67
2021/04/11 03:03:33;;;;;;;7.97;4.45;;;;;;;1.96;66.02;95766.38;5044645;28;20044;-67
2021/04/11 03:06:11;;;;;;;9.27;4.97;;;;;;;1.96;65.64;95773.31;5045275;28;20044;-67
2021/04/11 03:08:41;;;;;;;14.23;5.38;;;;;;;1.76;66.06;95776.09;5037938;28;20060;-67
2021/04/11 03:11:33;;;;;;;9.15;5.03;;;;;;;1.81;65.18;95775.66;5029840;28;20037;-67
2021/04/11 03:14:02;;;;;;;21.40;9.05;;;;;;;1.80;66.31;95779.16;5038917;28;20098;-67
2021/04/11 03:16:35;;;;;;;11.55;6.70;;;;;;;1.74;66.26;95770.31;5035833;28;20139;-68
2021/04/11 03:19:04;;;;;;;15.45;6.65;;;;;;;1.70;66.50;95772.38;5044466;28;20060;-68
2021/04/11 03:21:34;;;;;;;8.32;5.38;;;;;;;1.77;65.40;95771.78;5039929;28;20487;-67
2021/04/11 03:24:04;;;;;;;7.95;5.15;;;;;;;1.82;64.72;95772.09;5036906;28;20118;-68
2021/04/11 03:26:46;;;;;;;9.45;5.80;;;;;;;1.81;64.94;95775.66;5039345;28;20055;-68
2021/04/11 03:29:30;;;;;;;15.05;8.00;;;;;;;1.88;64.50;95786.91;5040518;28;20061;-68
2021/04/11 03:32:04;;;;;;;14.98;7.50;;;;;;;1.47;66.27;95758.44;5030974;28;20124;-68
2021/04/11 03:34:32;;;;;;;12.30;7.40;;;;;;;1.58;65.75;95776.16;5022902;28;20049;-68
2021/04/11 03:37:04;;;;;;;12.82;7.72;;;;;;;1.68;65.76;95787.13;5032881;28;20049;-68
2021/04/11 03:39:33;;;;;;;12.05;8.15;;;;;;;1.71;65.49;95786.84;5026319;28;20060;-68
2021/04/11 03:42:10;;;;;;;15.45;7.72;;;;;;;1.76;65.38;95793.28;5029111;28;20132;-68
2021/04/11 03:44:40;;;;;;;17.50;7.88;;;;;;;1.63;66.59;95791.91;5035291;28;20060;-68
2021/04/11 03:47:14;;;;;;;23.95;11.70;;;;;;;1.56;67.50;95793.47;5029524;28;20734;-68
2021/04/11 03:50:08;;;;;;;24.08;11.98;;;;;;;1.66;67.38;95796.75;5043824;28;21055;-68
2021/04/11 03:53:09;;;;;;;29.00;12.13;;;;;;;1.69;68.62;95799.03;5030086;28;20131;-68
2021/04/11 03:55:43;;;;;;;27.40;12.55;;;;;;;1.77;68.39;95797.47;5027037;28;20037;-68
2021/04/11 03:58:20;;;;;;;38.90;13.20;;;;;;;1.82;67.74;95802.94;5034569;28;20046;-68
2021/04/11 04:00:57;;;;;;;44.53;17.73;;;;;;;1.82;68.46;95802.94;5043645;28;20072;-68
2021/04/11 04:03:30;;;;;;;47.60;15.02;;;;;;;1.89;68.84;95811.63;5034014;28;20478;-68
2021/04/11 04:06:14;;;;;;;54.55;14.25;;;;;;;1.84;68.55;95816.44;5036784;28;20086;-68
2021/04/11 04:08:41;;;;;;;45.73;16.63;;;;;;;1.71;69.78;95821.97;5025728;28;20427;-68
2021/04/11 04:11:20;;;;;;;50.47;16.75;;;;;;;1.68;69.88;95820.53;5025597;28;20837;-68
2021/04/11 04:13:50;;;;;;;34.28;14.32;;;;;;;1.63;69.31;95824.50;5039276;28;20041;-68
2021/04/11 04:16:54;;;;;;;29.65;13.80;;;;;;;1.62;69.44;95833.97;5027590;28;20037;-67
2021/04/11 04:19:35;;;;;;;53.22;14.48;;;;;;;1.65;69.39;95838.78;5033770;28;20103;-68
2021/04/11 04:22:23;;;;;;;44.05;12.32;;;;;;;1.59;69.37;95848.88;5032236;28;20045;-68
2021/04/11 04:25:21;;;;;;;50.53;16.95;;;;;;;1.45;69.72;95847.66;5039515;28;20175;-68
2021/04/11 04:28:07;;;;;;;48.10;14.88;;;;;;;1.49;70.05;95854.09;5027051;28;20542;-68
2021/04/11 04:30:40;;;;;;;46.42;15.88;;;;;;;1.51;70.29;95852.16;5029688;28;20040;-68
2021/04/11 04:33:06;;;;;;;58.30;17.02;;;;;;;1.55;70.90;95863.78;5039040;28;20057;-68
2021/04/11 04:36:06;;;;;;;71.97;16.02;;;;;;;1.60;71.60;95851.28;5033918;28;20049;-68
2021/04/11 04:38:38;;;;;;;56.45;15.35;;;;;;;1.51;72.20;95863.28;5012938;28;20490;-68
2021/04/11 04:41:17;;;;;;;53.92;17.08;;;;;;;1.38;72.63;95859.47;5037501;28;20124;-68
2021/04/11 04:43:58;;;;;;;47.33;16.70;;;;;;;1.47;73.55;95864.50;5042046;28;20429;-68
2021/04/11 04:46:47;;;;;;;65.13;25.00;;;;;;;1.53;74.03;95863.09;5028993;28;21827;-68
2021/04/11 04:49:34;;;;;;;;;;;;;;;1.59;74.47;95875.34;5027832;28;20051;-68
2021/04/11 04:52:18;;;;;;;61.05;25.73;;;;;;;1.67;73.97;95870.25;5044013;28;19924;-68
2021/04/11 04:54:50;;;;;;;;;;;;;;;1.71;73.52;95869.03;5045572;28;20052;-68
2021/04/11 04:57:45;;;;;;;62.55;20.25;;;;;;;1.72;73.16;95873.19;5025046;28;19921;-68
2021/04/11 05:00:21;;;;;;;50.17;19.00;;;;;;;1.72;72.94;95864.69;5033677;28;20041;-68
2021/04/11 05:03:09;;;;;;;54.15;19.02;;;;;;;1.82;72.34;95867.16;5026025;28;20120;-69
2021/04/11 05:05:42;;;;;;;;;;;;;;;1.92;72.33;95870.44;5024568;28;20053;-68
2021/04/11 05:08:48;;;;;;;47.30;15.45;;;;;;;1.97;71.97;95868.22;5030084;28;19921;-69
2021/04/11 05:11:34;;;;;;;38.05;19.38;;;;;;;2.05;71.79;95870.03;5043689;28;20414;-69
2021/04/11 05:14:14;;;;;;;35.38;13.30;;;;;;;2.15;71.36;95872.50;5044120;28;20072;-68
2021/04/11 05:16:48;;;;;;;20.42;11.55;;;;;;;2.22;71.15;95876.06;5036297;28;20091;-68
2021/04/11 05:19:45;;;;;;;20.23;10.13;;;;;;;2.30;69.99;95873.53;5042980;28;20052;-69
2021/04/11 05:22:45;;;;;;;18.10;9.90;;;;;;;2.34;69.16;95859.44;5042808;28;20049;-68
2021/04/11 05:25:20;;;;;;;26.42;9.90;;;;;;;2.49;68.62;95868.16;5029596;28;20048;-68
2021/04/11 05:28:00;;;;;;;25.63;9.75;;;;;;;2.61;68.65;95866.13;5024556;28;20045;-68
2021/04/11 05:30:32;;;;;;;15.98;7.68;;;;;;;2.67;67.50;95872.41;5024150;28;20068;-68
2021/04/11 05:32:58;;;;;;;20.90;9.57;;;;;;;2.78;67.33;95872.09;5042520;28;20045;-68
2021/04/11 05:35:28;;;;;;;18.85;9.70;;;;;;;2.92;67.07;95875.03;5032311;28;20033;-68
2021/04/11 05:38:23;;;;;;;15.02;8.90;;;;;;;2.93;67.03;95874.06;5034021;28;20116;-68
2021/04/11 05:40:59;;;;;;;28.38;10.82;;;;;;;3.13;68.68;95877.16;5042757;28;20048;-68
2021/04/11 05:43:39;;;;;;;19.50;11.77;;;;;;;3.28;68.44;95872.19;5058719;28;20048;-68
2021/04/11 05:46:22;;;;;;;26.17;10.50;;;;;;;3.24;68.35;95872.53;5043452;28;20036;-68
2021/04/11 05:48:57;;;;;;;21.50;11.02;;;;;;;3.35;68.08;95873.16;5032454;28;20116;-68
2021/04/11 05:51:38;;;;;;;24.05;11.07;;;;;;;3.38;67.13;95878.00;5043839;28;20091;-68
2021/04/11 05:54:18;;;;;;;70.57;21.85;;;;;;;3.52;67.55;95879.94;5043718;28;20033;-69
2021/04/11 05:57:05;;;;;;;92.32;18.50;;;;;;;3.68;67.97;95878.34;5025751;28;20049;-68
2021/04/11 05:59:41;;;;;;;66.43;13.93;;;;;;;3.80;66.62;95877.84;5027550;28;20124;-68
2021/04/11 06:02:15;;;;;;;56.65;13.60;;;;;;;3.72;66.07;95874.47;5026757;28;20038;-69
2021/04/11 06:04:48;;;;;;;38.58;12.82;;;;;;;3.93;65.96;95869.63;5031486;28;20041;-68
2021/04/11 06:07:17;;;;;;;31.17;14.05;;;;;;;4.10;64.12;95875.53;5020149;28;20049;-68
2021/04/11 06:09:49;;;;;;;38.53;10.35;;;;;;;4.19;63.94;95878.91;5027101;28;20037;-68
2021/04/11 06:12:32;;;;;;;22.83;11.38;;;;;;;4.39;63.58;95881.91;5027548;28;20037;-68
2021/04/11 06:15:06;;;;;;;29.10;11.20;;;;;;;4.47;62.51;95868.19;5029448;28;20045;-69
2021/04/11 06:17:33;;;;;;;32.75;11.80;;;;;;;4.56;63.04;95870.56;5038776;28;20065;-69
2021/04/11 06:20:00;;;;;;;21.80;8.77;;;;;;;4.65;63.06;95855.84;5029855;28;20041;-69
2021/04/11 06:22:45;;;;;;;23.90;9.15;;;;;;;4.86;61.98;95862.19;5037052;28;20511;-69
2021/04/11 06:25:14;;;;;;;16.25;8.90;;;;;;;5.03;60.87;95858.56;5039478;28;20041;-69
2021/04/11 06:28:16;;;;;;;32.78;15.77;;;;;;;5.19;60.27;95872.34;5028677;28;20496;-68
2021/04/11 06:30:55;;;;;;;23.77;10.90;;;;;;;5.28;59.46;95871.31;5036845;28;20128;-69
2021/04/11 06:33:26;;;;;;;18.02;10.10;;;;;;;5.52;59.40;95863.38;5032973;28;20061;-69
2021/04/11 06:36:15;;;;;;;23.55;8.50;;;;;;;5.63;58.52;95863.94;5041357;28;20033;-71
2021/04/11 06:38:53;;;;;;;18.70;8.60;;;;;;;5.77;57.58;95860.59;5025539;28;20049;-70
2021/04/11 06:41:25;;;;;;;21.65;8.77;;;;;;;5.91;58.00;95857.22;5028805;28;20390;-69
2021/04/11 06:44:22;;;;;;;18.20;10.02;;;;;;;6.16;58.32;95859.63;5034285;28;20058;-69
2021/04/11 06:46:49;;;;;;;24.42;8.95;;;;;;;6.26;56.86;95865.31;5029249;28;20067;-69
2021/04/11 06:49:18;;;;;;;19.05;9.90;;;;;;;6.35;57.11;95867.81;5027599;28;20061;-70
2021/04/11 06:51:50;;;;;;;20.60;10.50;;;;;;;6.42;57.32;95868.72;5032624;28;20042;-69
2021/04/11 06:54:37;;;;;;;21.35;10.00;;;;;;;6.62;58.70;95864.59;5028321;28;20065;-69
2021/04/11 06:57:33;;;;;;;14.63;8.40;;;;;;;6.82;56.30;95869.19;5031492;28;20045;-69
2021/04/11 07:00:02;;;;;;;16.67;9.60;;;;;;;6.92;57.09;95866.34;5032940;28;20459;-69
2021/04/11 07:02:37;;;;;;;26.00;9.45;;;;;;;7.10;55.89;95871.13;5034341;28;20037;-70
2021/04/11 07:05:10;;;;;;;22.20;9.57;;;;;;;7.22;55.82;95867.03;5034732;28;20086;-70
2021/04/11 07:07:54;;;;;;;17.95;9.27;;;;;;;7.18;57.54;95866.59;5029557;28;20189;-70
2021/04/11 07:10:46;;;;;;;20.20;10.30;;;;;;;7.32;54.93;95864.94;5044485;28;20051;-70
2021/04/11 07:13:16;;;;;;;17.75;8.70;;;;;;;7.45;54.98;95865.09;5040875;28;20059;-69
2021/04/11 07:16:03;;;;;;;18.63;8.05;;;;;;;7.64;54.63;95868.03;5042706;28;20498;-70
2021/04/11 07:19:00;;;;;;;16.15;9.23;;;;;;;7.75;53.98;95864.94;5029026;28;20056;-71
2021/04/11 07:21:33;;;;;;;11.15;6.85;;;;;;;7.96;52.95;95871.06;5034097;28;20092;-70
2021/04/11 07:24:24;;;;;;;10.45;6.90;;;;;;;8.27;53.74;95859.50;5037987;28;20083;-69
2021/04/11 07:27:19;;;;;;;12.00;5.88;;;;;;;8.43;48.99;95864.44;5037309;28;20048;-69
2021/04/11 07:30:07;;;;;;;10.25;5.70;;;;;;;8.53;46.87;95867.44;5032554;28;20100;-69
2021/04/11 07:33:01;;;;;;;11.80;6.80;;;;;;;8.68;49.08;95858.72;5031455;28;20049;-69
2021/04/11 07:36:08;;;;;;;12.93;9.30;;;;;;;8.96;48.23;95866.44;5031260;28;20057;-69
2021/04/11 07:38:49;;;;;;;10.02;6.30;;;;;;;9.03;46.46;95863.88;5032343;28;20061;-69
2021/04/11 07:41:18;;;;;;;11.20;6.20;;;;;;;9.08;46.50;95874.47;5031884;28;20041;-70
2021/04/11 07:44:58;;;;;;;11.05;6.35;;;;;;;9.14;45.12;95876.28;5028964;28;20156;-70
2021/04/11 07:48:02;;;;;;;14.35;6.13;;;;;;;9.08;44.21;95869.28;4911296;28;20079;-70
2021/04/11 07:50:42;;;;;;;11.35;5.38;;;;;;;9.17;46.73;95857.72;4983281;28;20050;-70
2021/04/11 07:53:36;;;;;;;12.15;6.07;;;;;;;9.50;45.13;95862.16;5022401;28;20053;-70
2021/04/11 07:56:20;;;;;;;8.43;6.03;;;;;;;9.52;45.04;95841.97;5037761;28;20029;-70
2021/04/11 07:59:14;;;;;;;36.80;6.07;;;;;;;9.85;46.36;95854.97;5034533;28;20041;-70
2021/04/11 08:02:11;;;;;;;11.85;6.03;;;;;;;10.08;44.54;95858.94;5029201;28;20565;-71
2021/04/11 08:04:50;;;;;;;9.25;5.78;;;;;;;10.27;42.61;95852.91;5027434;28;20136;-70
2021/04/11 08:07:58;;;;;;;9.43;5.97;;;;;;;10.33;42.99;95851.34;5022311;28;20073;-70
2021/04/11 08:10:39;;;;;;;12.30;5.82;;;;;;;10.63;42.12;95856.06;5013876;28;20053;-71
2021/04/11 08:13:28;;;;;;;9.88;5.88;;;;;;;10.66;40.81;95845.22;5041828;28;20045;-71
2021/04/11 08:16:28;;;;;;;10.20;5.68;;;;;;;10.68;38.73;95848.44;5037935;28;20136;-71
2021/04/11 08:19:01;;;;;;;14.43;6.35;;;;;;;10.97;41.15;95847.13;5035738;28;20457;-71
2021/04/11 08:22:13;;;;;;;13.43;6.93;;;;;;;11.16;39.40;95850.59;5031108;28;20045;-71
2021/04/11 08:24:39;;;;;;;8.50;6.65;;;;;;;11.37;43.04;95840.88;5023334;28;20057;-71
2021/04/11 08:27:27;;;;;;;13.73;7.40;;;;;;;11.45;39.13;95848.44;5032443;28;20522;-70
2021/04/11 08:30:07;;;;;;;11.43;6.72;;;;;;;11.56;38.17;95844.34;5036341;28;20439;-70
2021/04/11 08:32:52;;;;;;;10.52;6.93;;;;;;;11.66;38.96;95839.47;5038656;28;20033;-72
2021/04/11 08:35:57;;;;;;;10.68;6.22;;;;;;;11.97;37.58;95840.44;5030301;28;20057;-70
2021/04/11 08:38:41;;;;;;;9.52;4.88;;;;;;;12.20;36.62;95845.06;5043835;28;20048;-70
2021/04/11 08:41:16;;;;;;;7.50;5.65;;;;;;;12.06;33.55;95836.53;5042286;28;20033;-71
2021/04/11 08:43:58;;;;;;;25.70;6.82;;;;;;;12.34;37.46;95830.84;5044660;28;20041;-71
2021/04/11 08:46:33;;;;;;;13.82;5.80;;;;;;;12.43;35.02;95829.53;5032021;28;20048;-71
2021/04/11 08:49:17;;;;;;;17.55;8.05;;;;;;;12.51;36.57;95825.03;5030972;28;20044;-71
2021/04/11 08:52:08;;;;;;;10.75;6.07;;;;;;;12.73;32.41;95823.59;5026552;28;20112;-70
2021/04/11 08:54:49;;;;;;;12.27;6.95;;;;;;;12.90;33.30;95823.75;5030292;28;20052;-71
2021/04/11 08:57:52;;;;;;;18.50;7.35;;;;;;;12.98;34.05;95820.84;5027044;28;20140;-71
2021/04/11 09:00:26;;;;;;;10.73;6.18;;;;;;;13.26;36.29;95821.28;5029158;28;20422;-71
2021/04/11 09:03:28;;;;;;;8.85;6.03;;;;;;;13.57;35.08;95817.63;5038044;28;20042;-71
2021/04/11 09:06:36;;;;;;;11.70;6.35;;;;;;;13.73;36.28;95805.69;5040257;28;20477;-71
2021/04/11 09:09:14;;;;;;;11.23;5.70;;;;;;;13.96;34.90;95810.94;5035116;28;20033;-71
2021/04/11 09:12:05;;;;;;;9.77;5.68;;;;;;;14.24;31.59;95806.84;5034392;28;20403;-72
2021/04/11 09:14:31;;;;;;;9.65;5.82;;;;;;;14.42;33.53;95802.47;5034959;28;20045;-71
2021/04/11 09:17:10;;;;;;;9.13;5.53;;;;;;;14.69;35.00;95798.34;5026238;28;20049;-71
2021/04/11 09:20:01;;;;;;;14.30;6.05;;;;;;;14.87;33.09;95791.31;5045565;28;20152;-71
2021/04/11 09:22:55;;;;;;;9.65;5.40;;;;;;;15.02;32.96;95786.38;5027931;28;20033;-72
2021/04/11 09:25:29;;;;;;;7.72;4.53;;;;;;;14.88;33.69;95785.06;5042914;28;20123;-71
2021/04/11 09:28:04;;;;;;;11.90;5.57;;;;;;;15.35;30.38;95790.06;5042723;28;20066;-71
2021/04/11 09:30:45;;;;;;;22.88;7.43;;;;;;;15.78;29.13;95783.44;5043845;28;20043;-72
2021/04/11 09:33:38;;;;;;;12.35;6.72;;;;;;;16.05;29.29;95782.75;5037036;28;20094;-72
2021/04/11 09:36:27;;;;;;;18.02;11.98;;;;;;;16.31;29.21;95768.09;5031764;28;20064;-72
2021/04/11 09:39:31;;;;;;;7.90;5.40;;;;;;;16.38;29.01;95768.72;5044652;28;20545;-72
2021/04/11 09:42:03;;;;;;;6.63;4.43;;;;;;;16.70;28.16;95772.53;5027741;28;20045;-71
2021/04/11 09:44:55;;;;;;;19.08;8.02;;;;;;;16.91;27.06;95766.47;5042782;28;20041;-71
2021/04/11 09:47:42;;;;;;;16.88;6.88;;;;;;;16.81;28.32;95768.94;5033897;28;20055;-72
2021/04/11 09:50:18;;;;;;;6.82;5.35;;;;;;;17.01;27.92;95757.88;5042555;28;20064;-72
2021/04/11 09:53:21;;;;;;;11.85;6.80;;;;;;;17.09;27.74;95759.28;5031840;28;20120;-72
2021/04/11 09:56:11;;;;;;;9.82;4.95;;;;;;;17.16;26.80;95754.56;5041661;28;20049;-72
2021/04/11 09:58:59;;;;;;;4.97;3.50;;;;;;;17.05;27.57;95747.63;5044706;28;20430;-72
2021/04/11 10:01:34;;;;;;;6.25;3.42;;;;;;;17.35;28.92;95740.00;5027809;28;20487;-72
2021/04/11 10:04:19;;;;;;;16.80;7.10;;;;;;;17.84;22.97;95743.50;5033159;28;20037;-71
2021/04/11 10:07:01;;;;;;;6.97;5.65;;;;;;;18.35;22.83;95741.19;5036710;28;20115;-72
2021/04/11 10:09:59;;;;;;;14.35;6.28;;;;;;;18.50;24.19;95751.78;5042685;28;20045;-72
2021/04/11 10:12:43;;;;;;;8.25;4.25;;;;;;;18.50;22.16;95746.50;5025323;28;20041;-72
2021/04/11 10:15:15;;;;;;;5.40;3.88;;;;;;;18.40;24.66;95741.22;5035113;28;20044;-71
2021/04/11 10:18:03;;;;;;;9.68;4.28;;;;;;;18.14;26.22;95733.16;5026829;28;20042;-72
2021/04/11 10:20:44;;;;;;;18.33;7.90;;;;;;;18.70;23.69;95734.44;5027687;28;20049;-72
2021/04/11 10:23:19;;;;;;;9.13;5.43;;;;;;;18.42;24.45;95744.38;5038142;28;20041;-72
2021/04/11 10:25:49;;;;;;;22.05;11.93;;;;;;;18.86;23.46;95738.72;5021097;28;20044;-74
2021/04/11 10:28:24;;;;;;;5.13;3.83;;;;;;;18.91;23.54;95741.38;5031033;28;20042;-72
2021/04/11 10:31:16;;;;;;;;;;;;;;;19.24;26.65;95734.00;5012811;28;20056;-73
2021/04/11 10:33:52;;;;;;;10.25;4.03;;;;;;;19.49;22.40;95724.50;4993282;28;19924;-72
2021/04/11 10:36:36;;;;;;;8.48;3.30;;;;;;;19.65;23.33;95717.38;5009017;28;20483;-72
2021/04/11 10:39:26;;;;;;;7.20;3.75;;;;;;;19.80;22.39;95724.50;5033794;28;20454;-72
2021/04/11 10:42:16;;;;;;;6.57;3.63;;;;;;;19.87;22.79;95719.72;5034787;28;20037;-72
2021/04/11 10:44:58;;;;;;;9.07;3.40;;;;;;;19.93;24.00;95728.44;5036348;28;20124;-72
2021/04/11 10:47:46;;;;;;;6.97;3.47;;;;;;;20.40;20.07;95722.75;5031189;28;20125;-72
2021/04/11 10:50:28;;;;;;;6.18;3.65;;;;;;;20.33;20.48;95716.97;5032386;28;20546;-71
2021/04/11 10:53:09;;;;;;;6.28;3.97;;;;;;;19.97;21.82;95716.25;5032147;28;20097;-73
2021/04/11 10:56:06;;;;;;;8.57;3.58;;;;;;;19.94;20.54;95714.19;5036206;28;20396;-72
2021/04/11 10:58:55;;;;;;;6.00;4.13;;;;;;;20.36;20.52;95697.88;5039091;28;20047;-74
2021/04/11 11:01:52;;;;;;;7.57;3.90;;;;;;;21.32;18.69;95712.66;5038939;28;20128;-75
2021/04/11 11:04:49;;;;;;;5.43;3.53;;;;;;;21.33;19.08;95706.31;5036594;28;20053;-72
2021/04/11 11:07:43;;;;;;;7.50;3.60;;;;;;;21.74;17.38;95700.69;5036765;28;20083;-74
2021/04/11 11:10:25;;;;;;;8.57;3.58;;;;;;;22.51;17.01;95691.88;5032984;28;20041;-75
2021/04/11 11:12:51;;;;;;;7.10;3.67;;;;;;;21.95;19.58;95691.44;5036533;28;20036;-74
2021/04/11 11:15:27;;;;;;;7.25;3.05;;;;;;;21.45;20.89;95687.41;5036826;28;20100;-75
2021/04/11 11:18:20;;;;;;;3.78;2.70;;;;;;;21.78;20.48;95685.78;5041011;28;20048;-74
2021/04/11 11:20:46;;;;;;;9.13;3.63;;;;;;;21.64;15.45;95679.56;5036375;28;20439;-73
2021/04/11 11:23:22;;;;;;;5.82;2.55;;;;;;;22.37;16.49;95675.06;5039294;28;20108;-73
2021/04/11 11:26:04;;;;;;;5.55;2.72;;;;;;;21.65;17.31;95675.84;5041229;28;20049;-74
2021/04/11 11:29:18;;;;;;;7.40;3.20;;;;;;;22.53;15.65;95679.09;5034699;28;20048;-75
2021/04/11 11:32:12;;;;;;;4.93;3.05;;;;;;;21.97;14.89;95667.28;4998630;28;20057;-76
2021/04/11 11:34:38;;;;;;;6.07;4.30;;;;;;;22.30;15.22;95675.41;5036175;28;20045;-76
2021/04/11 11:37:19;;;;;;;6.70;2.95;;;;;;;22.64;15.89;95664.59;5041005;28;20422;-76
2021/04/11 11:39:51;;;;;;;5.95;3.03;;;;;;;22.52;17.67;95672.22;5037444;28;20120;-76
2021/04/11 11:42:55;;;;;;;4.65;2.92;;;;;;;22.18;18.62;95662.53;5038854;28;20053;-76
2021/04/11 11:45:38;;;;;;;4.43;2.47;;;;;;;21.68;18.88;95654.06;5035136;28;20041;-76
2021/04/11 11:48:14;;;;;;;4.72;2.75;;;;;;;22.36;19.22;95649.59;5036176;28;20124;-75
2021/04/11 11:50:59;;;;;;;3.83;2.97;;;;;;;22.46;17.81;95652.13;5036205;28;20045;-76
2021/04/11 11:53:52;;;;;;;5.75;2.83;;;;;;;22.37;18.75;95638.72;5037166;28;20541;-76
2021/04/11 11:56:35;;;;;;;4.30;2.25;;;;;;;21.15;17.77;95652.94;5039244;28;20076;-76
2021/04/11 11:59:31;;;;;;;5.20;3.13;;;;;;;22.39;18.72;95638.44;5041399;28;20529;-76
2021/04/11 12:02:04;;;;;;;5.60;2.80;;;;;;;22.52;18.99;95646.44;5037192;28;20045;-76
2021/04/11 12:04:33;;;;;;;5.80;2.38;;;;;;;22.63;18.40;95635.69;5040339;28;20037;-76
2021/04/11 12:07:11;;;;;;;5.55;2.53;;;;;;;22.33;17.12;95645.66;5038264;28;20506;-76
2021/04/11 12:09:48;;;;;;;4.70;2.00;;;;;;;21.81;15.35;95621.59;5039054;28;20124;-76
2021/04/11 12:12:25;;;;;;;4.13;2.15;;;;;;;22.12;15.34;95632.63;5037462;28;20060;-76
2021/04/11 12:15:16;;;;;;;6.53;2.78;;;;;;;23.11;15.05;95629.44;5038717;28;20045;-76
2021/04/11 12:18:10;;;;;;;3.80;2.60;;;;;;;21.70;15.93;95625.44;5033372;28;20045;-76
2021/04/11 12:20:47;;;;;;;3.78;2.10;;;;;;;22.50;16.84;95618.63;5038918;28;20387;-76
2021/04/11 12:23:31;;;;;;;4.03;2.75;;;;;;;23.25;14.96;95615.09;5042774;28;20041;-76
2021/04/11 12:26:14;;;;;;;7.90;3.10;;;;;;;23.71;14.46;95605.47;5045417;28;20112;-76
2021/04/11 12:28:42;;;;;;;4.45;2.70;;;;;;;23.28;13.96;95603.88;5041940;28;20568;-76
2021/04/11 12:31:33;;;;;;;3.22;2.38;;;;;;;23.24;14.08;95608.19;5045632;28;20056;-76
2021/04/11 12:34:10;;;;;;;4.28;2.13;;;;;;;23.72;13.55;95596.44;5045263;28;20044;-76